Terminal Aerodrome Forecast
Issued by NWS Raleigh/Durham, NC

Home | Current Version | Previous Version | Text Only | Print | Product List | Glossary On
Versions: 1 2 3 4 5 6 7 8 9 10 11 12 13 14 15 16 17 18 19 20 21 22 23 24 25 26
000
FTUS42 KRAH 251236 AAA
TAFFAY
TAF AMD
KFAY 251236Z 2513/2612 34004KT P6SM SCT006 BKN017 OVC022
      TEMPO 2513/2516 OVC006
     FM251600 29007KT P6SM OVC008
     FM260300 31010KT P6SM BKN015=

USA.gov is the U.S. government's official web portal to all federal, state and local government web resources and services.